Philadelphia, Pennsylvania
Traffic Map
Current Weather Conditions
Philadelphia, Pennsylvania
Overcast Light Rain
Overcast
37°
Feels Like: 27°
Wind Chill: 27° Ceiling: 2300
Heat Index: 37° Visibility: 6mi
Dew Point: 35° Wind: 17mph
Humidity: 93% Direction: 350° (N)
Pressure: 29.38in Gusts: 0mph
Raw Report DataKPHL 240940Z 35015KT 6SM -RA BR FEW010 BKN023 OVC038 03/02 A2938 RMK AO2 P0001 T00280017
Traffic Incident Summary
Active as of:
Severity:
Category:
InformationThere was an issue retrieving the traffic information for this location. Please try a different location or try again shortly.
Advertisements
Track Severe Weather on mobile